createdAt,value
2023-04-15T00:01:11.989Z,19.96
2023-04-15T00:03:39.789Z,19.98
2023-04-15T00:06:07.083Z,20.00
2023-04-15T00:08:34.380Z,20.02
2023-04-15T00:11:03.277Z,20.04
2023-04-15T00:13:30.582Z,20.06
2023-04-15T00:15:57.546Z,20.08
2023-04-15T00:18:25.298Z,20.10
2023-04-15T00:20:52.761Z,20.11
2023-04-15T00:23:19.778Z,20.12
2023-04-15T00:25:47.106Z,20.14
2023-04-15T00:28:14.406Z,20.15
2023-04-15T00:30:42.994Z,20.16
2023-04-15T00:33:10.382Z,20.17
2023-04-15T00:35:37.716Z,20.18
2023-04-15T00:38:06.204Z,20.18
2023-04-15T00:40:33.563Z,20.20
2023-04-15T00:43:00.759Z,20.19
2023-04-15T00:45:28.444Z,20.20
2023-04-15T00:47:56.100Z,20.21
2023-04-15T00:50:23.080Z,20.21
2023-04-15T00:52:49.935Z,20.22
2023-04-15T00:55:16.993Z,20.22
2023-04-15T00:57:44.882Z,20.23
2023-04-15T01:00:12.256Z,20.22
2023-04-15T01:02:39.652Z,20.23
2023-04-15T01:05:07.890Z,20.23
2023-04-15T01:07:34.838Z,20.24
2023-04-15T01:10:04.267Z,20.23
2023-04-15T01:12:33.349Z,20.24
2023-04-15T01:15:00.520Z,20.24
2023-04-15T01:17:27.528Z,20.23
2023-04-15T01:19:58.141Z,20.23
2023-04-15T01:22:26.910Z,20.22
2023-04-15T01:25:10.057Z,20.20
2023-04-15T01:27:40.186Z,20.19
2023-04-15T01:30:08.819Z,20.19
2023-04-15T01:32:35.916Z,20.19
2023-04-15T01:35:03.058Z,20.19
2023-04-15T01:37:30.319Z,20.19
2023-04-15T01:39:58.253Z,20.19
2023-04-15T01:42:25.257Z,20.20
2023-04-15T01:44:52.329Z,20.19
2023-04-15T01:47:19.455Z,20.20
2023-04-15T01:49:47.699Z,20.20
2023-04-15T01:52:14.594Z,20.20
2023-04-15T01:54:41.854Z,20.20
2023-04-15T01:57:08.719Z,20.21
2023-04-15T01:59:36.472Z,20.20
2023-04-15T02:02:03.461Z,20.20
2023-04-15T02:04:30.568Z,20.21
2023-04-15T02:07:00.880Z,20.21
2023-04-15T02:09:28.093Z,20.21
2023-04-15T02:11:54.940Z,20.21
2023-04-15T02:14:22.313Z,20.21
2023-04-15T02:16:49.293Z,20.21
2023-04-15T02:19:16.587Z,20.21
2023-04-15T02:21:43.574Z,20.21
2023-04-15T02:24:12.332Z,20.21
2023-04-15T02:26:41.300Z,20.21
2023-04-15T02:29:08.320Z,20.21
2023-04-15T02:31:38.252Z,20.21
2023-04-15T02:34:05.242Z,20.20
2023-04-15T02:36:32.174Z,20.20
2023-04-15T02:38:59.454Z,20.20
2023-04-15T02:41:28.627Z,20.20
2023-04-15T02:43:55.978Z,20.20
2023-04-15T02:46:23.314Z,20.20
2023-04-15T02:48:50.705Z,20.20
2023-04-15T02:51:22.902Z,20.20
2023-04-15T02:53:51.077Z,20.19
2023-04-15T02:56:20.060Z,20.19
2023-04-15T02:58:47.457Z,20.19
2023-04-15T03:01:14.970Z,20.18
2023-04-15T03:03:42.466Z,20.18
2023-04-15T03:06:09.586Z,20.18
2023-04-15T03:08:37.276Z,20.17
2023-04-15T03:11:05.418Z,20.18
2023-04-15T03:13:33.317Z,20.18
2023-04-15T03:16:04.286Z,20.18
2023-04-15T03:18:31.936Z,20.16
2023-04-15T03:21:01.560Z,20.16
2023-04-15T03:23:31.668Z,20.15
2023-04-15T03:26:00.122Z,20.14
2023-04-15T03:28:29.777Z,20.14
2023-04-15T03:31:00.443Z,20.14
2023-04-15T03:33:27.513Z,20.14
2023-04-15T03:35:54.608Z,20.14
2023-04-15T03:38:21.754Z,20.14
2023-04-15T03:40:48.774Z,20.14
2023-04-15T03:43:15.831Z,20.14
2023-04-15T03:45:42.727Z,20.14
2023-04-15T03:48:17.068Z,20.14
2023-04-15T03:50:44.508Z,20.14
2023-04-15T03:53:11.420Z,20.15
2023-04-15T03:55:38.257Z,20.14
2023-04-15T03:58:05.339Z,20.15
2023-04-15T04:00:32.308Z,20.14
2023-04-15T04:02:59.472Z,20.14
2023-04-15T04:05:26.440Z,20.14
2023-04-15T04:07:53.311Z,20.14
2023-04-15T04:10:20.289Z,20.14
2023-04-15T04:12:47.232Z,20.15
2023-04-15T04:15:14.503Z,20.14
2023-04-15T04:17:41.703Z,20.13
2023-04-15T04:20:09.519Z,20.12
2023-04-15T04:22:40.345Z,20.10
2023-04-15T04:25:08.937Z,20.08
2023-04-15T04:27:36.512Z,20.07
2023-04-15T04:30:03.866Z,20.06
2023-04-15T04:32:30.955Z,20.06
2023-04-15T04:34:57.858Z,20.06
2023-04-15T04:37:25.239Z,20.06
2023-04-15T04:39:52.247Z,20.06
2023-04-15T04:42:19.272Z,20.07
2023-04-15T04:44:46.728Z,20.06
2023-04-15T04:47:14.156Z,20.04
2023-04-15T04:49:41.362Z,20.03
2023-04-15T04:52:09.265Z,20.03
2023-04-15T04:54:36.474Z,20.03
2023-04-15T04:57:03.453Z,20.02
2023-04-15T04:59:30.449Z,20.03
2023-04-15T05:01:57.941Z,20.03
2023-04-15T05:04:26.595Z,20.03
2023-04-15T05:06:53.504Z,20.01
2023-04-15T05:09:20.451Z,20.00
2023-04-15T05:11:47.300Z,19.98
2023-04-15T05:14:14.196Z,19.98
2023-04-15T05:16:41.113Z,19.99
2023-04-15T05:19:08.425Z,20.01
2023-04-15T05:21:36.641Z,20.02
2023-04-15T05:24:05.843Z,20.02
2023-04-15T05:26:32.811Z,20.03
2023-04-15T05:28:59.880Z,20.03
2023-04-15T05:31:27.278Z,20.02
2023-04-15T05:33:54.345Z,20.02
2023-04-15T05:36:21.508Z,20.02
2023-04-15T05:38:48.385Z,20.01
2023-04-15T05:41:18.357Z,20.01
2023-04-15T05:43:46.628Z,20.01
2023-04-15T05:46:13.632Z,20.00
2023-04-15T05:48:40.612Z,20.00
2023-04-15T05:51:07.664Z,20.01
2023-04-15T05:53:34.503Z,20.01
2023-04-15T05:56:01.762Z,20.01
2023-04-15T05:58:28.736Z,20.01
2023-04-15T06:00:55.954Z,20.02
2023-04-15T06:03:23.204Z,20.02
2023-04-15T06:05:50.353Z,20.02
2023-04-15T06:08:17.274Z,20.02
2023-04-15T06:10:44.248Z,20.02
2023-04-15T06:13:11.192Z,20.01
2023-04-15T06:15:38.144Z,20.02
2023-04-15T06:18:05.573Z,20.02
2023-04-15T06:20:32.847Z,20.01
2023-04-15T06:22:59.802Z,20.02
2023-04-15T06:25:27.045Z,20.02
2023-04-15T06:27:53.985Z,20.01
2023-04-15T06:30:22.322Z,20.02
2023-04-15T06:32:51.198Z,20.02
2023-04-15T06:35:18.203Z,20.01
2023-04-15T06:37:45.067Z,20.02
2023-04-15T06:40:12.683Z,20.02
2023-04-15T06:42:39.755Z,20.02
2023-04-15T06:45:07.414Z,20.02
2023-04-15T06:47:34.630Z,20.01
2023-04-15T06:50:02.147Z,20.03
2023-04-15T06:52:30.265Z,20.04
2023-04-15T06:55:00.011Z,20.05
2023-04-15T06:57:29.705Z,20.06
2023-04-15T06:59:58.465Z,20.06
2023-04-15T07:02:28.278Z,20.08
2023-04-15T07:04:58.004Z,20.09
2023-04-15T07:07:27.209Z,20.11
2023-04-15T07:09:56.210Z,20.11
2023-04-15T07:12:25.289Z,20.12
2023-04-15T07:14:53.318Z,20.13
2023-04-15T07:17:23.508Z,20.13
2023-04-15T07:19:52.630Z,20.14
2023-04-15T07:22:21.651Z,20.15
2023-04-15T07:24:50.604Z,20.15
2023-04-15T07:27:19.441Z,20.17
2023-04-15T07:29:48.040Z,20.17
2023-04-15T07:32:17.280Z,20.18
2023-04-15T07:34:48.746Z,20.19
2023-04-15T07:37:18.808Z,20.22
2023-04-15T07:39:48.376Z,20.23
2023-04-15T07:42:17.136Z,20.24
2023-04-15T07:44:46.159Z,20.25
2023-04-15T07:47:14.880Z,20.26
2023-04-15T07:49:44.929Z,20.27
2023-04-15T07:52:13.052Z,20.28
2023-04-15T07:54:44.457Z,20.30
2023-04-15T07:57:13.225Z,20.30
2023-04-15T07:59:42.902Z,20.31
2023-04-15T08:02:12.717Z,20.32
2023-04-15T08:04:42.094Z,20.32
2023-04-15T08:07:11.248Z,20.32
2023-04-15T08:09:40.064Z,20.33
2023-04-15T08:12:10.244Z,20.33
2023-04-15T08:14:39.653Z,20.33
2023-04-15T08:17:08.183Z,20.32
2023-04-15T08:19:37.414Z,20.32
2023-04-15T08:22:06.723Z,20.32
2023-04-15T08:24:44.395Z,20.30
2023-04-15T08:27:13.241Z,20.31
2023-04-15T08:29:46.974Z,20.30
2023-04-15T08:32:14.133Z,20.30
2023-04-15T08:34:41.224Z,20.30
2023-04-15T08:37:08.488Z,20.29
2023-04-15T08:39:35.525Z,20.28
2023-04-15T08:42:05.854Z,20.28
2023-04-15T08:44:37.211Z,20.28
2023-04-15T08:47:07.792Z,20.28
2023-04-15T08:49:39.456Z,20.27
2023-04-15T08:52:06.865Z,20.27
2023-04-15T08:54:34.602Z,20.26
2023-04-15T08:57:02.776Z,20.26
2023-04-15T08:59:33.002Z,20.25
2023-04-15T09:02:00.247Z,20.24
2023-04-15T09:04:28.943Z,20.23
2023-04-15T09:06:55.884Z,20.23
2023-04-15T09:09:23.038Z,20.24
2023-04-15T09:11:51.818Z,20.23
2023-04-15T09:14:18.681Z,20.24
2023-04-15T09:17:03.441Z,20.24
2023-04-15T09:19:33.823Z,20.25
2023-04-15T09:22:01.617Z,20.26
2023-04-15T09:24:40.136Z,20.25
2023-04-15T09:27:07.502Z,20.25
2023-04-15T09:29:34.871Z,20.24
2023-04-15T09:32:13.163Z,20.23
2023-04-15T09:34:40.093Z,20.23
2023-04-15T09:37:08.155Z,20.22
2023-04-15T09:39:52.322Z,20.22
2023-04-15T09:42:27.051Z,20.22
2023-04-15T09:44:54.221Z,20.22
2023-04-15T09:47:29.236Z,20.22
2023-04-15T09:50:00.731Z,20.22
2023-04-15T09:52:28.933Z,20.22
2023-04-15T09:54:59.253Z,20.22
2023-04-15T09:57:34.893Z,20.23
2023-04-15T10:00:02.136Z,20.24
2023-04-15T10:02:31.319Z,20.25
2023-04-15T10:04:59.868Z,20.26
2023-04-15T10:07:27.628Z,20.26
2023-04-15T10:09:55.285Z,20.26
2023-04-15T10:12:22.954Z,20.25
2023-04-15T10:14:57.175Z,20.26
2023-04-15T10:17:34.395Z,20.26
2023-04-15T10:20:04.036Z,20.27
2023-04-15T10:22:32.342Z,20.28
2023-04-15T10:25:02.866Z,20.30
2023-04-15T10:27:30.638Z,20.29
2023-04-15T10:29:57.750Z,20.30
2023-04-15T10:32:25.917Z,20.30
2023-04-15T10:34:54.848Z,20.32
2023-04-15T10:37:33.981Z,20.33
2023-04-15T10:40:01.124Z,20.34
2023-04-15T10:42:35.164Z,20.35
2023-04-15T10:45:02.088Z,20.37
2023-04-15T10:47:29.144Z,20.39
2023-04-15T10:50:00.550Z,20.41
2023-04-15T10:52:29.203Z,20.42
2023-04-15T10:55:26.598Z,20.44
2023-04-15T10:57:56.363Z,20.45
2023-04-15T11:00:29.105Z,20.46
2023-04-15T11:02:58.640Z,20.47
2023-04-15T11:05:52.095Z,20.48
2023-04-15T11:08:19.524Z,20.48
2023-04-15T11:10:46.416Z,20.48
2023-04-15T11:13:18.713Z,20.48
2023-04-15T11:15:47.215Z,20.49
2023-04-15T11:18:14.073Z,20.50
2023-04-15T11:21:11.044Z,20.51
2023-04-15T11:23:40.006Z,20.53
2023-04-15T11:26:15.635Z,20.53
2023-04-15T11:28:46.440Z,20.55
2023-04-15T11:31:18.046Z,20.56
2023-04-15T11:33:56.835Z,20.57
2023-04-15T11:36:29.626Z,20.58
2023-04-15T11:38:59.687Z,20.59
2023-04-15T11:41:26.612Z,20.59
2023-04-15T11:43:53.714Z,20.60
2023-04-15T11:46:22.072Z,20.61
2023-04-15T11:48:49.027Z,20.62
2023-04-15T11:51:16.220Z,20.63
2023-04-15T11:53:46.193Z,20.63
2023-04-15T11:56:21.692Z,20.64
2023-04-15T11:58:51.998Z,20.64
2023-04-15T12:01:19.098Z,20.65
2023-04-15T12:03:47.582Z,20.64
2023-04-15T12:06:22.794Z,20.64
2023-04-15T12:08:55.954Z,20.64
2023-04-15T12:11:39.372Z,20.65
2023-04-15T12:14:28.724Z,20.64
2023-04-15T12:16:58.901Z,20.65
2023-04-15T12:19:29.098Z,20.65
2023-04-15T12:22:16.447Z,20.66
2023-04-15T12:24:47.169Z,20.65
2023-04-15T12:27:15.696Z,20.66
2023-04-15T12:29:43.425Z,20.66
2023-04-15T12:32:11.952Z,20.66
2023-04-15T12:34:41.509Z,20.66
2023-04-15T12:37:10.458Z,20.66
2023-04-15T12:39:39.926Z,20.66
2023-04-15T12:42:07.792Z,20.65
2023-04-15T12:44:35.851Z,20.65
2023-04-15T12:47:03.371Z,20.66
2023-04-15T12:49:33.020Z,20.66
2023-04-15T12:52:01.386Z,20.66
2023-04-15T12:54:29.407Z,20.66
2023-04-15T12:56:57.051Z,20.65
2023-04-15T12:59:24.617Z,20.66
2023-04-15T13:01:53.549Z,20.65
2023-04-15T13:04:22.079Z,20.66
2023-04-15T13:06:49.625Z,20.66
2023-04-15T13:09:16.747Z,20.66
2023-04-15T13:11:44.200Z,20.67
2023-04-15T13:14:13.947Z,20.67
2023-04-15T13:16:41.681Z,20.67
2023-04-15T13:19:08.792Z,20.68
2023-04-15T13:21:36.489Z,20.67
2023-04-15T13:24:04.536Z,20.66
2023-04-15T13:26:32.142Z,20.66
2023-04-15T13:29:00.874Z,20.65
2023-04-15T13:31:28.162Z,20.65
2023-04-15T13:33:55.242Z,20.64
2023-04-15T13:36:22.601Z,20.63
2023-04-15T13:38:51.381Z,20.60
2023-04-15T13:41:18.722Z,20.60
2023-04-15T13:43:45.803Z,20.60
2023-04-15T13:46:13.007Z,20.61
2023-04-15T13:48:40.164Z,20.62
2023-04-15T13:51:07.087Z,20.63
2023-04-15T13:53:38.251Z,20.64
2023-04-15T13:56:09.580Z,20.65
2023-04-15T13:58:41.123Z,20.67
2023-04-15T14:01:08.249Z,20.67
2023-04-15T14:03:36.565Z,20.68
2023-04-15T14:06:04.359Z,20.68
2023-04-15T14:08:31.813Z,20.68
2023-04-15T14:10:58.848Z,20.69
2023-04-15T14:13:25.757Z,20.68
2023-04-15T14:15:53.085Z,20.67
2023-04-15T14:18:20.195Z,20.66
2023-04-15T14:20:47.262Z,20.64
2023-04-15T14:23:14.311Z,20.63
2023-04-15T14:25:41.290Z,20.62
2023-04-15T14:28:08.168Z,20.59
2023-04-15T14:30:35.447Z,20.58
2023-04-15T14:33:02.780Z,20.57
2023-04-15T14:35:29.880Z,20.56
2023-04-15T14:37:57.198Z,20.57
2023-04-15T14:40:24.613Z,20.58
2023-04-15T14:42:51.605Z,20.58
2023-04-15T14:45:18.640Z,20.59
2023-04-15T14:47:45.633Z,20.62
2023-04-15T14:50:12.544Z,20.63
2023-04-15T14:52:39.761Z,20.64
2023-04-15T14:55:08.015Z,20.65
2023-04-15T14:57:34.969Z,20.66
2023-04-15T15:00:02.303Z,20.66
2023-04-15T15:02:38.398Z,20.67
2023-04-15T15:05:06.853Z,20.68
2023-04-15T15:07:33.986Z,20.68
2023-04-15T15:10:01.004Z,20.68
2023-04-15T15:12:27.886Z,20.69
2023-04-15T15:14:56.066Z,20.70
2023-04-15T15:17:23.057Z,20.70
2023-04-15T15:19:50.083Z,20.71
2023-04-15T15:22:18.884Z,20.70
2023-04-15T15:24:47.139Z,20.70
2023-04-15T15:27:14.010Z,20.71
2023-04-15T15:29:41.034Z,20.71
2023-04-15T15:32:08.156Z,20.72
2023-04-15T15:34:35.028Z,20.72
2023-04-15T15:37:02.022Z,20.72
2023-04-15T15:39:29.129Z,20.72
2023-04-15T15:41:56.296Z,20.72
2023-04-15T15:44:23.099Z,20.72
2023-04-15T15:46:51.266Z,20.72
2023-04-15T15:49:20.019Z,20.71
2023-04-15T15:51:46.953Z,20.71
2023-04-15T15:54:13.925Z,20.70
2023-04-15T15:56:42.260Z,20.69
2023-04-15T15:59:09.187Z,20.69
2023-04-15T16:01:36.151Z,20.70
2023-04-15T16:04:03.449Z,20.70
2023-04-15T16:06:33.838Z,20.70
2023-04-15T16:09:02.263Z,20.70
2023-04-15T16:11:29.695Z,20.71
2023-04-15T16:13:56.701Z,20.72
2023-04-15T16:16:24.693Z,20.71
2023-04-15T16:18:51.712Z,20.72
2023-04-15T16:21:20.916Z,20.72
2023-04-15T16:23:48.196Z,20.72
2023-04-15T16:26:15.247Z,20.71
2023-04-15T16:28:42.160Z,20.71
2023-04-15T16:31:11.400Z,20.71
2023-04-15T16:33:38.986Z,20.71
2023-04-15T16:36:06.243Z,20.71
2023-04-15T16:38:33.376Z,20.71
2023-04-15T16:41:01.734Z,20.71
2023-04-15T16:43:29.411Z,20.72
2023-04-15T16:45:56.667Z,20.72
2023-04-15T16:48:24.031Z,20.71
2023-04-15T16:50:50.900Z,20.71
2023-04-15T16:53:18.859Z,20.70
2023-04-15T16:55:46.820Z,20.71
2023-04-15T16:58:14.147Z,20.71
2023-04-15T17:00:42.699Z,20.71
2023-04-15T17:03:10.017Z,20.72
2023-04-15T17:05:38.702Z,20.71
2023-04-15T17:08:06.197Z,20.72
2023-04-15T17:10:33.255Z,20.72
2023-04-15T17:13:00.509Z,20.72
2023-04-15T17:15:27.599Z,20.73
2023-04-15T17:17:54.791Z,20.72
2023-04-15T17:20:21.922Z,20.72
2023-04-15T17:22:49.133Z,20.73
2023-04-15T17:25:16.196Z,20.73
2023-04-15T17:27:43.815Z,20.72
2023-04-15T17:30:11.014Z,20.72
2023-04-15T17:32:40.103Z,20.72
2023-04-15T17:35:07.870Z,20.72
2023-04-15T17:37:35.912Z,20.72
2023-04-15T17:40:04.034Z,20.73
2023-04-15T17:42:31.635Z,20.73
2023-04-15T17:44:58.587Z,20.72
2023-04-15T17:47:25.760Z,20.72
2023-04-15T17:49:52.700Z,20.72
2023-04-15T17:52:19.597Z,20.72
2023-04-15T17:54:47.286Z,20.72
2023-04-15T17:57:14.193Z,20.72
2023-04-15T17:59:45.166Z,20.72
2023-04-15T18:02:12.201Z,20.72
2023-04-15T18:04:40.072Z,20.72
2023-04-15T18:07:07.137Z,20.72
2023-04-15T18:09:34.024Z,20.72
2023-04-15T18:12:02.201Z,20.72
2023-04-15T18:14:34.550Z,20.73
2023-04-15T18:17:03.331Z,20.72
2023-04-15T18:19:31.051Z,20.72
2023-04-15T18:22:00.536Z,20.72
2023-04-15T18:24:28.360Z,20.72
2023-04-15T18:26:55.288Z,20.71
2023-04-15T18:29:22.500Z,20.71
2023-04-15T18:31:49.514Z,20.71
2023-04-15T18:34:16.368Z,20.70
2023-04-15T18:36:43.387Z,20.71
2023-04-15T18:39:10.628Z,20.72
2023-04-15T18:41:37.515Z,20.71
2023-04-15T18:44:04.690Z,20.71
2023-04-15T18:46:31.600Z,20.71
2023-04-15T18:48:58.541Z,20.71
2023-04-15T18:51:26.071Z,20.70
2023-04-15T18:53:52.969Z,20.70
2023-04-15T18:56:19.929Z,20.69
2023-04-15T18:59:08.562Z,20.69
2023-04-15T19:01:34.597Z,20.68
2023-04-15T19:04:07.838Z,20.68
2023-04-15T19:06:34.861Z,20.68
2023-04-15T19:09:02.654Z,20.68
2023-04-15T19:11:29.696Z,20.68
2023-04-15T19:13:56.708Z,20.68
2023-04-15T19:16:23.609Z,20.69
2023-04-15T19:18:50.755Z,20.69
2023-04-15T19:21:17.858Z,20.69
2023-04-15T19:23:44.930Z,20.68
2023-04-15T19:26:12.368Z,20.68
2023-04-15T19:28:39.530Z,20.67
2023-04-15T19:31:06.922Z,20.66
2023-04-15T19:33:34.541Z,20.64
2023-04-15T19:36:04.371Z,20.61
2023-04-15T19:38:33.034Z,20.58
2023-04-15T19:40:59.993Z,20.57
2023-04-15T19:43:27.437Z,20.55
2023-04-15T19:45:55.136Z,20.52
2023-04-15T19:48:24.712Z,20.50
2023-04-15T19:50:51.849Z,20.49
2023-04-15T19:53:18.796Z,20.47
2023-04-15T19:55:47.284Z,20.45
2023-04-15T19:58:14.435Z,20.42
2023-04-15T20:00:45.277Z,20.40
2023-04-15T20:03:12.354Z,20.38
2023-04-15T20:05:39.675Z,20.36
2023-04-15T20:08:07.024Z,20.35
2023-04-15T20:10:34.535Z,20.33
2023-04-15T20:13:01.422Z,20.31
2023-04-15T20:15:28.366Z,20.29
2023-04-15T20:17:55.342Z,20.27
2023-04-15T20:20:22.897Z,20.25
2023-04-15T20:22:49.798Z,20.25
2023-04-15T20:25:16.970Z,20.24
2023-04-15T20:27:44.626Z,20.23
2023-04-15T20:30:12.080Z,20.23
2023-04-15T20:32:39.156Z,20.23
2023-04-15T20:35:07.072Z,20.23
2023-04-15T20:37:34.403Z,20.23
2023-04-15T20:40:02.354Z,20.24
2023-04-15T20:42:34.579Z,20.25
2023-04-15T20:45:02.374Z,20.27
2023-04-15T20:47:29.946Z,20.28
2023-04-15T20:49:57.639Z,20.28
2023-04-15T20:52:24.646Z,20.28
2023-04-15T20:54:51.984Z,20.28
2023-04-15T20:57:20.476Z,20.26
2023-04-15T20:59:47.628Z,20.25
2023-04-15T21:02:14.848Z,20.24
2023-04-15T21:04:42.272Z,20.22
2023-04-15T21:07:10.302Z,20.21
2023-04-15T21:09:41.762Z,20.19
2023-04-15T21:12:10.023Z,20.19
2023-04-15T21:14:37.885Z,20.18
2023-04-15T21:17:10.040Z,20.17
2023-04-15T21:19:39.144Z,20.16
2023-04-15T21:22:07.178Z,20.15
2023-04-15T21:24:34.708Z,20.15
2023-04-15T21:27:02.134Z,20.16
2023-04-15T21:29:31.124Z,20.17
2023-04-15T21:31:58.434Z,20.17
2023-04-15T21:34:25.714Z,20.17
2023-04-15T21:36:52.720Z,20.17
2023-04-15T21:39:20.031Z,20.16
2023-04-15T21:41:48.024Z,20.16
2023-04-15T21:44:15.236Z,20.14
2023-04-15T21:46:45.961Z,20.13
2023-04-15T21:49:13.965Z,20.12
2023-04-15T21:51:41.075Z,20.11
2023-04-15T21:54:08.188Z,20.10
2023-04-15T21:56:35.517Z,20.09
2023-04-15T21:59:02.418Z,20.08
2023-04-15T22:01:29.446Z,20.07
2023-04-15T22:03:56.917Z,20.06
2023-04-15T22:06:24.000Z,20.05
2023-04-15T22:08:56.826Z,20.04
2023-04-15T22:11:30.606Z,20.03
2023-04-15T22:13:58.766Z,20.02
2023-04-15T22:16:26.649Z,20.01
2023-04-15T22:18:54.742Z,20.00
2023-04-15T22:21:21.971Z,20.00
2023-04-15T22:23:49.820Z,19.99
2023-04-15T22:26:16.963Z,19.98
2023-04-15T22:28:43.919Z,19.97
2023-04-15T22:31:10.989Z,19.97
2023-04-15T22:33:38.947Z,19.95
2023-04-15T22:36:06.753Z,19.94
2023-04-15T22:38:33.947Z,19.94
2023-04-15T22:41:00.897Z,19.93
2023-04-15T22:43:27.950Z,19.94
2023-04-15T22:45:55.415Z,19.96
2023-04-15T22:48:23.120Z,20.02
2023-04-15T22:50:50.217Z,20.05
2023-04-15T22:53:18.066Z,20.06
2023-04-15T22:55:52.014Z,20.07
2023-04-15T22:58:18.914Z,20.09
2023-04-15T23:00:46.276Z,20.10
2023-04-15T23:03:13.519Z,20.10
2023-04-15T23:05:41.537Z,20.11
2023-04-15T23:08:09.371Z,20.09
2023-04-15T23:10:36.817Z,20.09
2023-04-15T23:13:03.694Z,20.09
2023-04-15T23:15:31.020Z,20.08
2023-04-15T23:17:58.021Z,20.07
2023-04-15T23:20:25.114Z,20.06
2023-04-15T23:22:52.061Z,20.05
2023-04-15T23:25:22.407Z,20.03
2023-04-15T23:27:49.327Z,20.02
2023-04-15T23:30:16.564Z,20.01
2023-04-15T23:32:43.709Z,19.99
2023-04-15T23:35:10.970Z,19.98
2023-04-15T23:37:37.929Z,19.97
2023-04-15T23:40:05.593Z,19.96
2023-04-15T23:42:32.472Z,19.94
2023-04-15T23:44:59.394Z,19.94
2023-04-15T23:47:26.452Z,19.93
2023-04-15T23:49:53.575Z,19.92
2023-04-15T23:52:20.633Z,19.91
2023-04-15T23:54:47.668Z,19.91
2023-04-15T23:57:14.618Z,19.90
2023-04-15T23:59:41.457Z,19.90
